Time;durP1;ratioP1;P1;durP2;ratioP2;P2;SDS_P1;SDS_P2;PMS_P1;PMS_P2;Temp;Humidity;BMP_temperature;BMP_pressure;BME280_temperature;BME280_humidity;BME280_pressure;Samples;Min_cycle;Max_cycle;Signal;HPM_P1;HPM_P2
2022/01/27 00:01:42;;;;;;;145.57;127.30;;;6.10;98.80;;;;;;4991442;28;20457;-80
2022/01/27 00:04:15;;;;;;;148.25;131.95;;;6.10;98.80;;;;;;4971413;28;20059;-80
2022/01/27 00:06:42;;;;;;;143.88;128.43;;;6.10;98.80;;;;;;4977384;28;20146;-79
2022/01/27 00:09:16;;;;;;;140.90;125.43;;;6.10;98.80;;;;;;4993533;28;20130;-79
2022/01/27 00:12:02;;;;;;;141.07;124.88;;;6.10;98.90;;;;;;4982626;28;20054;-80
2022/01/27 00:14:28;;;;;;;139.93;124.57;;;6.10;98.90;;;;;;4998821;28;20146;-80
2022/01/27 00:16:58;;;;;;;149.73;133.48;;;6.10;98.70;;;;;;4999278;28;20105;-79
2022/01/27 00:19:25;;;;;;;142.63;126.68;;;6.10;98.80;;;;;;5025777;28;20550;-80
2022/01/27 00:21:52;;;;;;;;;;;6.10;98.70;;;;;;5002887;28;20531;-80
2022/01/27 00:24:19;;;;;;;141.38;123.10;;;6.10;98.80;;;;;;4983980;28;19926;-79
2022/01/27 00:26:46;;;;;;;141.32;125.50;;;6.10;98.80;;;;;;4988617;28;20652;-80
2022/01/27 00:29:15;;;;;;;;;;;6.10;98.80;;;;;;4987887;28;20081;-80
2022/01/27 00:31:42;;;;;;;140.57;125.18;;;6.10;98.70;;;;;;5002925;28;20393;-80
2022/01/27 00:34:12;;;;;;;143.63;128.35;;;6.10;98.80;;;;;;4986467;28;20145;-79
2022/01/27 00:36:39;;;;;;;141.10;125.90;;;6.10;98.70;;;;;;4998950;28;20129;-79
2022/01/27 00:39:06;;;;;;;142.75;127.55;;;6.10;98.90;;;;;;5005910;28;20161;-79
2022/01/27 00:41:33;;;;;;;139.68;124.60;;;6.10;98.60;;;;;;4989878;28;20054;-80
2022/01/27 00:44:01;;;;;;;138.55;123.07;;;6.10;98.60;;;;;;4987934;28;20451;-79
2022/01/27 00:46:32;;;;;;;143.15;127.80;;;6.10;98.70;;;;;;5002303;28;20062;-80
2022/01/27 00:48:59;;;;;;;143.82;128.30;;;6.10;98.60;;;;;;5025190;28;20047;-79
2022/01/27 00:51:30;;;;;;;141.68;126.47;;;6.10;98.60;;;;;;4993108;28;20122;-79
2022/01/27 00:54:04;;;;;;;139.38;124.30;;;6.10;98.50;;;;;;4995009;28;20059;-79
2022/01/27 00:56:39;;;;;;;147.75;132.15;;;6.10;98.50;;;;;;4994622;28;20472;-79
2022/01/27 00:59:22;;;;;;;139.30;123.85;;;6.20;98.50;;;;;;4992031;28;20043;-80
2022/01/27 01:01:58;;;;;;;140.77;125.40;;;6.20;98.40;;;;;;4966074;28;20048;-80
2022/01/27 01:04:30;;;;;;;139.77;124.70;;;6.10;98.50;;;;;;4992670;28;20492;-79
2022/01/27 01:06:57;;;;;;;140.85;122.25;;;6.10;98.40;;;;;;4994581;28;20733;-80
2022/01/27 01:15:09;;;;;;;133.45;118.95;;;6.10;98.40;;;;;;4974649;28;20130;-79
2022/01/27 01:17:55;;;;;;;137.88;123.25;;;6.20;98.30;;;;;;4995529;28;20057;-79
2022/01/27 01:20:49;;;;;;;141.80;126.72;;;6.20;98.40;;;;;;4990845;28;20054;-79
2022/01/27 01:31:45;;;;;;;134.65;120.10;;;6.20;98.40;;;;;;4974097;28;20051;-79
2022/01/27 01:34:16;;;;;;;132.07;117.20;;;6.20;98.40;;;;;;4974829;28;20522;-79
2022/01/27 01:36:53;;;;;;;134.75;119.95;;;6.20;98.50;;;;;;4974774;28;20074;-79
2022/01/27 01:39:20;;;;;;;135.80;120.88;;;6.20;98.40;;;;;;4975038;28;20114;-79
2022/01/27 01:41:47;;;;;;;;;;;6.20;98.50;;;;;;4975167;28;20062;-79
2022/01/27 01:44:15;;;;;;;141.07;126.07;;;6.20;98.50;;;;;;4991140;28;19930;-80
2022/01/27 01:46:42;;;;;;;137.40;122.60;;;6.20;98.40;;;;;;4974928;28;20506;-80
2022/01/27 01:49:09;;;;;;;138.98;124.18;;;6.20;98.40;;;;;;4975058;28;20059;-80
2022/01/27 01:51:38;;;;;;;;;;;6.30;98.30;;;;;;4971656;28;20053;-80
2022/01/27 01:54:06;;;;;;;134.70;119.97;;;6.30;98.30;;;;;;5018955;28;19930;-79
2022/01/27 01:56:35;;;;;;;138.00;123.28;;;6.30;98.30;;;;;;4991569;28;20057;-79
2022/01/27 01:59:02;;;;;;;136.80;122.35;;;6.30;98.50;;;;;;4994194;28;20062;-80
2022/01/27 02:01:29;;;;;;;136.18;121.32;;;6.30;98.40;;;;;;4994044;28;20058;-80
2022/01/27 02:03:59;;;;;;;134.90;120.22;;;6.30;98.40;;;;;;4993972;28;20507;-79
2022/01/27 02:06:32;;;;;;;141.45;126.53;;;6.30;98.40;;;;;;4994169;28;20081;-79
2022/01/27 02:09:12;;;;;;;136.45;121.93;;;6.30;98.20;;;;;;4977626;28;20105;-79
2022/01/27 02:19:57;;;;;;;134.98;120.25;;;6.20;98.20;;;;;;4994589;28;20061;-79
2022/01/27 02:22:25;;;;;;;136.38;121.38;;;6.20;98.20;;;;;;4993740;28;20051;-80
2022/01/27 02:24:53;;;;;;;137.70;123.15;;;6.20;98.20;;;;;;4977313;28;20082;-79
2022/01/27 02:27:21;;;;;;;136.73;121.78;;;6.20;98.30;;;;;;4994926;28;20141;-80
2022/01/27 02:29:48;;;;;;;137.20;122.05;;;6.20;98.20;;;;;;4993148;28;20058;-80
2022/01/27 02:32:17;;;;;;;137.82;123.05;;;6.20;98.30;;;;;;4993539;28;20053;-79
2022/01/27 02:34:45;;;;;;;136.85;121.80;;;6.20;98.30;;;;;;4993641;28;20063;-79
2022/01/27 02:37:13;;;;;;;141.25;124.85;;;6.20;98.40;;;;;;4993305;28;20054;-79
2022/01/27 02:39:40;;;;;;;136.25;121.65;;;6.10;98.40;;;;;;4977148;28;20054;-79
2022/01/27 02:42:11;;;;;;;;;;;6.10;98.30;;;;;;4993929;28;20046;-79
2022/01/27 02:44:52;;;;;;;138.23;123.32;;;6.20;98.30;;;;;;4993856;28;19930;-79
2022/01/27 02:47:19;;;;;;;141.18;125.97;;;6.10;98.30;;;;;;4994808;28;20051;-79
2022/01/27 02:49:46;;;;;;;139.45;124.30;;;6.10;98.40;;;;;;5009642;28;20508;-79
2022/01/27 02:52:16;;;;;;;137.70;122.75;;;6.10;98.30;;;;;;4993218;28;20054;-79
2022/01/27 02:54:44;;;;;;;136.95;122.32;;;6.10;98.30;;;;;;4993326;28;20043;-79
2022/01/27 02:57:11;;;;;;;143.35;127.57;;;6.10;98.40;;;;;;4976854;28;20428;-79
2022/01/27 02:59:38;;;;;;;;;;;6.10;98.40;;;;;;4993750;28;20057;-79
2022/01/27 03:02:05;;;;;;;144.63;129.02;;;6.10;98.40;;;;;;4993566;28;20029;-80
2022/01/27 03:04:34;;;;;;;140.80;125.45;;;6.10;98.40;;;;;;4977046;28;20520;-79
2022/01/27 03:07:04;;;;;;;142.55;127.13;;;6.20;98.50;;;;;;4992947;28;20110;-80
2022/01/27 03:09:33;;;;;;;143.60;127.97;;;6.10;98.50;;;;;;4977132;28;20130;-79
2022/01/27 03:12:01;;;;;;;139.52;124.45;;;6.10;98.40;;;;;;4993141;28;20046;-79
2022/01/27 03:14:29;;;;;;;144.05;128.20;;;6.10;98.40;;;;;;4993212;28;20134;-80
2022/01/27 03:16:59;;;;;;;141.07;125.93;;;6.20;98.30;;;;;;4992317;28;20054;-79
2022/01/27 03:19:27;;;;;;;139.82;124.55;;;6.20;98.30;;;;;;4992869;28;20065;-79
2022/01/27 03:21:55;;;;;;;142.50;127.07;;;6.10;98.40;;;;;;4976529;28;20053;-79
2022/01/27 03:24:22;;;;;;;139.00;124.05;;;6.10;98.50;;;;;;4992318;28;20114;-79
2022/01/27 03:26:51;;;;;;;141.75;126.20;;;6.10;98.40;;;;;;4976538;28;20083;-79
2022/01/27 03:29:18;;;;;;;146.48;130.45;;;6.20;98.40;;;;;;4991398;28;20434;-79
2022/01/27 03:31:46;;;;;;;143.07;127.63;;;6.10;98.40;;;;;;4993084;28;20054;-80
2022/01/27 03:38:25;;;;;;;141.52;125.15;;;6.20;98.50;;;;;;4998292;28;20051;-79
2022/01/27 03:40:52;;;;;;;143.60;127.57;;;6.20;98.50;;;;;;4996372;28;20077;-79
2022/01/27 03:43:20;;;;;;;144.50;127.60;;;6.10;98.60;;;;;;4996119;28;20061;-79
2022/01/27 03:45:47;;;;;;;139.85;124.72;;;6.20;98.70;;;;;;4996306;28;20051;-80
2022/01/27 03:48:14;;;;;;;138.43;123.20;;;6.10;98.80;;;;;;4979615;28;20211;-80
2022/01/27 03:50:41;;;;;;;142.43;126.40;;;6.10;98.90;;;;;;4979744;28;20054;-80
2022/01/27 03:53:08;;;;;;;139.98;124.50;;;6.00;98.90;;;;;;4996203;28;20055;-80
2022/01/27 03:55:35;;;;;;;137.70;122.70;;;6.10;98.90;;;;;;4996078;28;20057;-79
2022/01/27 03:58:02;;;;;;;141.00;125.57;;;6.10;99.00;;;;;;4997331;28;20055;-80
2022/01/27 04:00:30;;;;;;;148.23;126.45;;;6.10;98.80;;;;;;4995836;28;20061;-80
2022/01/27 04:03:03;;;;;;;142.68;124.22;;;6.10;98.80;;;;;;4995790;28;20104;-80
2022/01/27 04:05:35;;;;;;;148.10;132.57;;;6.10;98.80;;;;;;4997379;28;20050;-80
2022/01/27 04:08:02;;;;;;;143.32;128.00;;;6.20;98.90;;;;;;4997113;28;20051;-79
2022/01/27 04:10:29;;;;;;;141.80;124.25;;;6.20;98.70;;;;;;4995750;28;20086;-79
2022/01/27 04:12:55;;;;;;;143.85;127.90;;;6.20;98.70;;;;;;4995540;28;21123;-80
2022/01/27 04:15:23;;;;;;;140.88;125.47;;;6.20;98.70;;;;;;4979588;28;20133;-80
2022/01/27 04:17:52;;;;;;;142.57;125.35;;;6.20;98.80;;;;;;4979182;28;20142;-79
2022/01/27 04:20:19;;;;;;;141.30;124.10;;;6.20;98.90;;;;;;4979181;28;20055;-79
2022/01/27 04:22:47;;;;;;;140.73;125.55;;;6.20;98.70;;;;;;4995570;28;20867;-80
2022/01/27 04:25:14;;;;;;;140.93;125.32;;;6.20;98.60;;;;;;4996763;28;20055;-79
2022/01/27 04:27:46;;;;;;;144.70;123.25;;;6.20;98.60;;;;;;4995157;28;20839;-79
2022/01/27 04:30:18;;;;;;;141.15;125.38;;;6.20;98.70;;;;;;4995818;28;20130;-80
2022/01/27 04:32:50;;;;;;;142.95;125.93;;;6.20;98.70;;;;;;4995424;28;20058;-80
2022/01/27 04:35:20;;;;;;;141.15;125.75;;;6.20;98.70;;;;;;4995423;28;20050;-80
2022/01/27 04:38:03;;;;;;;140.45;123.10;;;6.20;98.70;;;;;;4995045;28;20051;-80
2022/01/27 04:40:35;;;;;;;144.15;128.27;;;6.20;98.60;;;;;;4979249;28;20050;-79
2022/01/27 04:43:09;;;;;;;140.88;125.15;;;6.20;98.60;;;;;;4995063;28;20055;-79
2022/01/27 04:45:44;;;;;;;138.82;123.18;;;6.20;98.60;;;;;;4979328;28;20062;-79
2022/01/27 04:48:15;;;;;;;143.05;126.63;;;6.20;98.60;;;;;;4995218;28;20051;-79
2022/01/27 04:50:44;;;;;;;138.40;123.47;;;6.30;98.60;;;;;;4996706;28;20679;-79
2022/01/27 04:53:17;;;;;;;144.45;126.45;;;6.30;98.50;;;;;;4995242;28;20051;-79
2022/01/27 04:55:44;;;;;;;142.10;126.50;;;6.30;98.50;;;;;;4979032;28;20047;-79
2022/01/27 04:58:15;;;;;;;140.80;123.60;;;6.30;98.60;;;;;;4994877;28;20058;-79
2022/01/27 05:00:43;;;;;;;140.65;125.47;;;6.30;98.60;;;;;;4995056;28;20039;-79
2022/01/27 05:03:19;;;;;;;139.88;124.72;;;6.30;98.60;;;;;;4995150;28;20055;-79
2022/01/27 05:05:47;;;;;;;136.88;121.68;;;6.30;98.60;;;;;;4978588;28;20058;-79
2022/01/27 05:08:18;;;;;;;139.45;124.35;;;6.40;98.60;;;;;;4996247;28;20063;-79
2022/01/27 05:10:55;;;;;;;138.35;123.28;;;6.40;98.60;;;;;;4995034;28;20059;-79
2022/01/27 05:13:24;;;;;;;137.38;122.53;;;6.40;98.60;;;;;;4994864;28;20058;-79
2022/01/27 05:15:51;;;;;;;135.02;118.93;;;6.40;98.70;;;;;;4994683;28;20139;-79
2022/01/27 05:18:19;;;;;;;136.60;121.78;;;6.40;98.80;;;;;;4994504;28;20050;-79
2022/01/27 05:20:48;;;;;;;140.25;119.97;;;6.40;98.80;;;;;;4994712;28;20908;-80
2022/01/27 05:23:16;;;;;;;142.98;127.35;;;6.40;98.80;;;;;;4994684;28;20062;-80
2022/01/27 05:25:42;;;;;;;;;;;6.50;98.90;;;;;;4994973;28;20061;-79
2022/01/27 05:28:10;;;;;;;143.13;127.07;;;6.50;98.90;;;;;;4994736;28;19926;-79
2022/01/27 05:30:36;;;;;;;;;;;6.50;99.00;;;;;;4994628;28;20050;-79
2022/01/27 05:33:04;;;;;;;140.30;124.97;;;6.40;99.00;;;;;;4994986;28;19962;-79
2022/01/27 05:35:30;;;;;;;;;;;6.40;99.10;;;;;;4995030;28;20576;-79
2022/01/27 05:37:59;;;;;;;140.77;122.38;;;6.40;99.10;;;;;;4994661;28;19932;-79
2022/01/27 05:40:26;;;;;;;138.93;124.13;;;6.50;99.10;;;;;;4994746;28;20065;-80
2022/01/27 05:42:53;;;;;;;139.32;121.47;;;6.50;99.20;;;;;;4994370;28;20584;-79
2022/01/27 05:45:20;;;;;;;138.88;120.63;;;6.50;99.20;;;;;;4994361;28;20050;-79
2022/01/27 05:47:47;;;;;;;137.85;122.47;;;6.50;99.20;;;;;;4994346;28;20054;-79
2022/01/27 05:50:14;;;;;;;;;;;6.50;99.20;;;;;;4994577;28;20675;-80
2022/01/27 05:52:41;;;;;;;143.27;119.45;;;6.50;99.30;;;;;;4996014;28;19926;-79
2022/01/27 05:55:10;;;;;;;136.13;119.47;;;6.50;99.30;;;;;;4993478;28;20413;-80
2022/01/27 05:57:38;;;;;;;132.65;117.28;;;6.60;99.40;;;;;;4994090;28;20110;-79
2022/01/27 06:00:06;;;;;;;139.85;124.65;;;6.50;99.50;;;;;;4994270;28;20069;-79
2022/01/27 06:02:39;;;;;;;144.25;125.13;;;6.60;99.50;;;;;;4994003;28;20062;-80
2022/01/27 06:05:06;;;;;;;144.75;123.25;;;6.60;99.70;;;;;;4993929;28;20138;-79
2022/01/27 06:07:33;;;;;;;136.00;120.43;;;6.60;99.70;;;;;;4993709;28;20058;-80
2022/01/27 06:10:00;;;;;;;137.43;122.35;;;6.60;99.80;;;;;;4993932;28;20051;-80
2022/01/27 06:12:29;;;;;;;139.13;122.60;;;6.60;99.90;;;;;;4993798;28;20137;-79
2022/01/27 06:14:56;;;;;;;142.50;125.40;;;6.60;99.90;;;;;;4993746;28;20133;-80
2022/01/27 06:17:23;;;;;;;134.55;119.80;;;6.60;99.90;;;;;;4993651;28;20507;-80
2022/01/27 06:19:54;;;;;;;139.63;121.90;;;6.60;99.90;;;;;;5003889;28;20110;-80
2022/01/27 06:22:22;;;;;;;141.23;120.13;;;6.60;99.90;;;;;;4993775;28;20066;-80
2022/01/27 06:24:49;;;;;;;139.10;121.75;;;6.60;99.90;;;;;;4993717;28;20042;-79
2022/01/27 06:27:16;;;;;;;140.32;121.57;;;6.60;99.90;;;;;;4977448;28;20096;-80
2022/01/27 06:29:44;;;;;;;144.00;121.30;;;6.60;99.90;;;;;;4993387;28;20106;-80
2022/01/27 06:32:11;;;;;;;145.85;121.40;;;6.60;99.90;;;;;;4993526;28;20065;-80
2022/01/27 06:34:38;;;;;;;;;;;6.50;99.90;;;;;;4994245;28;20050;-80
2022/01/27 06:37:05;;;;;;;138.55;122.55;;;6.50;99.90;;;;;;4993594;28;20021;-80
2022/01/27 06:39:32;;;;;;;;;;;6.50;99.90;;;;;;4977616;28;20539;-80
2022/01/27 06:42:01;;;;;;;140.73;120.88;;;6.50;99.90;;;;;;4993976;28;19926;-79
2022/01/27 06:44:28;;;;;;;137.25;122.13;;;6.50;99.90;;;;;;4995789;28;20055;-80
2022/01/27 06:46:56;;;;;;;138.25;121.47;;;6.50;99.90;;;;;;4998668;28;20058;-79
2022/01/27 06:49:23;;;;;;;143.18;127.43;;;6.50;99.90;;;;;;5000291;28;20053;-79
2022/01/27 06:51:51;;;;;;;136.88;117.05;;;6.50;99.90;;;;;;5012387;28;20908;-78
2022/01/27 06:54:18;;;;;;;135.10;120.70;;;6.50;99.90;;;;;;5012879;28;20066;-80
2022/01/27 06:56:45;;;;;;;134.30;119.47;;;6.50;99.90;;;;;;5007691;28;20133;-83
2022/01/27 06:59:13;;;;;;;138.10;123.40;;;6.50;99.90;;;;;;4976840;28;20059;-83
2022/01/27 07:01:40;;;;;;;136.00;121.53;;;6.50;99.90;;;;;;5005466;28;20122;-83
2022/01/27 07:04:08;;;;;;;130.13;116.05;;;6.50;99.90;;;;;;4976623;28;20137;-82
2022/01/27 07:06:36;;;;;;;133.60;119.32;;;6.50;99.90;;;;;;4992928;28;20055;-82
2022/01/27 07:09:04;;;;;;;135.40;120.93;;;6.50;99.90;;;;;;4993164;28;20550;-80
2022/01/27 07:11:47;;;;;;;130.80;116.78;;;6.60;99.90;;;;;;4994301;28;20141;-81
2022/01/27 07:14:14;;;;;;;137.18;122.65;;;6.60;99.90;;;;;;4976929;28;20134;-80
2022/01/27 07:16:42;;;;;;;133.88;119.57;;;6.50;99.90;;;;;;4976605;28;20504;-82
2022/01/27 07:19:11;;;;;;;130.88;116.93;;;6.50;99.90;;;;;;4976247;28;20050;-80
2022/01/27 07:21:38;;;;;;;134.30;120.47;;;6.50;99.90;;;;;;5005695;28;20082;-80
2022/01/27 07:24:06;;;;;;;132.45;118.78;;;6.50;99.90;;;;;;4989066;28;20514;-80
2022/01/27 07:26:33;;;;;;;129.65;116.03;;;6.60;99.90;;;;;;4972957;28;20130;-81
2022/01/27 07:29:00;;;;;;;;;;;6.70;99.90;;;;;;4973351;28;20086;-80
2022/01/27 07:31:28;;;;;;;128.55;115.18;;;6.60;99.90;;;;;;4972755;28;19944;-80
2022/01/27 07:33:56;;;;;;;129.60;115.57;;;6.60;99.90;;;;;;4972467;28;20062;-80
2022/01/27 07:36:24;;;;;;;;;;;6.60;99.90;;;;;;4973588;28;20496;-81
2022/01/27 07:38:51;;;;;;;126.13;112.78;;;6.70;99.90;;;;;;4973349;28;20617;-81
2022/01/27 07:41:19;;;;;;;128.93;115.05;;;6.70;99.90;;;;;;4976085;28;20277;-81
2022/01/27 07:43:47;;;;;;;126.28;112.78;;;6.70;99.90;;;;;;4995140;28;20138;-80
2022/01/27 07:46:14;;;;;;;128.38;114.55;;;6.80;99.90;;;;;;4981035;28;20138;-81
2022/01/27 07:48:42;;;;;;;126.93;113.68;;;6.90;99.90;;;;;;4987487;28;20059;-80
2022/01/27 07:51:09;;;;;;;125.45;112.38;;;6.90;99.90;;;;;;4974903;28;20056;-81
2022/01/27 07:53:42;;;;;;;123.53;110.60;;;7.00;99.90;;;;;;4989838;28;20047;-80
2022/01/27 07:56:09;;;;;;;126.15;112.43;;;7.00;99.90;;;;;;4956885;28;20063;-81
2022/01/27 07:58:38;;;;;;;;;;;7.10;99.90;;;;;;4977238;28;20089;-81
2022/01/27 08:01:08;;;;;;;128.95;115.35;;;7.20;99.90;;;;;;4992919;28;19961;-81
2022/01/27 08:03:35;;;;;;;127.68;114.18;;;7.20;99.90;;;;;;4982087;28;20125;-81
2022/01/27 08:06:02;;;;;;;125.18;111.80;;;7.20;99.90;;;;;;4992130;28;20082;-81
2022/01/27 08:08:29;;;;;;;;;;;7.20;99.90;;;;;;4992675;28;20065;-81
2022/01/27 08:10:58;;;;;;;;;;;7.20;99.90;;;;;;4993243;28;19932;-81
2022/01/27 08:13:25;;;;;;;127.68;113.95;;;7.30;99.90;;;;;;4992334;28;19930;-81
2022/01/27 08:15:52;;;;;;;130.32;115.32;;;7.30;99.90;;;;;;4992646;28;20117;-81
2022/01/27 08:18:19;;;;;;;125.90;112.20;;;7.30;99.90;;;;;;4993561;28;20061;-82
2022/01/27 08:20:47;;;;;;;133.95;115.15;;;7.40;99.90;;;;;;4979716;28;20791;-81
2022/01/27 08:23:15;;;;;;;132.32;116.28;;;7.40;99.90;;;;;;4995359;28;20126;-82
2022/01/27 08:25:48;;;;;;;129.45;115.20;;;7.40;99.90;;;;;;4995535;28;20544;-81
2022/01/27 08:28:25;;;;;;;133.57;117.10;;;7.40;99.90;;;;;;4978970;28;20055;-81
2022/01/27 08:30:58;;;;;;;132.23;113.85;;;7.40;99.90;;;;;;4997291;28;20085;-81
2022/01/27 08:33:29;;;;;;;130.35;116.13;;;7.50;99.90;;;;;;4979066;28;20051;-81
2022/01/27 08:35:58;;;;;;;131.00;113.82;;;7.50;99.90;;;;;;4995375;28;20517;-81
2022/01/27 08:38:25;;;;;;;132.00;113.60;;;7.50;99.90;;;;;;4995383;28;20055;-81
2022/01/27 08:40:52;;;;;;;127.10;113.07;;;7.50;99.90;;;;;;4979101;28;20054;-81
2022/01/27 08:43:21;;;;;;;128.73;114.35;;;7.50;99.90;;;;;;4995277;28;20106;-81
2022/01/27 08:45:49;;;;;;;132.63;115.68;;;7.60;99.90;;;;;;4979106;28;20445;-81
2022/01/27 08:48:19;;;;;;;128.60;113.65;;;7.70;99.90;;;;;;4994956;28;20057;-81
2022/01/27 08:50:52;;;;;;;130.40;115.88;;;7.70;99.90;;;;;;4979221;28;20081;-80
2022/01/27 08:53:19;;;;;;;130.07;111.57;;;7.70;99.90;;;;;;4994843;28;20054;-81
2022/01/27 08:55:46;;;;;;;;;;;7.70;99.90;;;;;;4995717;28;20046;-81
2022/01/27 08:58:13;;;;;;;128.30;112.28;;;7.80;99.90;;;;;;5011523;28;19926;-81
2022/01/27 09:00:42;;;;;;;126.75;111.15;;;7.80;99.90;;;;;;4978780;28;20105;-81
2022/01/27 09:03:09;;;;;;;128.18;111.47;;;7.70;99.90;;;;;;4994979;28;20051;-81
2022/01/27 09:05:36;;;;;;;122.35;108.82;;;7.70;99.90;;;;;;4995297;28;20055;-81
2022/01/27 09:08:03;;;;;;;;;;;7.80;99.90;;;;;;4995143;28;20133;-81
2022/01/27 09:10:32;;;;;;;126.68;113.05;;;7.90;99.90;;;;;;5011593;28;20388;-81
2022/01/27 09:13:00;;;;;;;123.82;110.25;;;7.90;99.90;;;;;;4994759;28;20054;-81
2022/01/27 09:15:27;;;;;;;124.55;111.22;;;7.90;99.90;;;;;;4978677;28;20146;-81
2022/01/27 09:17:58;;;;;;;127.03;112.60;;;7.90;99.90;;;;;;4978310;28;20133;-81
2022/01/27 09:20:26;;;;;;;126.00;112.35;;;8.00;99.90;;;;;;4994759;28;20082;-81
2022/01/27 09:22:56;;;;;;;124.28;109.38;;;8.00;99.90;;;;;;4994744;28;20079;-81
2022/01/27 09:25:29;;;;;;;127.28;109.95;;;8.10;99.90;;;;;;4994425;28;20051;-81
2022/01/27 09:27:58;;;;;;;124.43;110.90;;;8.20;99.90;;;;;;4994473;28;20529;-81
2022/01/27 09:30:25;;;;;;;120.13;107.03;;;8.10;99.90;;;;;;4993802;28;20050;-81
2022/01/27 09:32:53;;;;;;;123.65;110.68;;;8.20;99.90;;;;;;4988870;28;20064;-81
2022/01/27 09:35:21;;;;;;;120.90;107.78;;;8.20;99.90;;;;;;4988503;28;20109;-81
2022/01/27 09:37:48;;;;;;;117.53;104.70;;;8.20;99.90;;;;;;5005330;28;20054;-82
2022/01/27 09:40:16;;;;;;;118.68;105.57;;;8.30;99.90;;;;;;4997995;28;20058;-80
2022/01/27 09:42:48;;;;;;;120.03;107.30;;;8.30;99.90;;;;;;4993584;28;20046;-81
2022/01/27 09:45:16;;;;;;;117.10;104.95;;;8.40;99.90;;;;;;4998687;28;20133;-82
2022/01/27 09:47:52;;;;;;;121.57;108.32;;;8.40;99.90;;;;;;4981023;28;20978;-82
2022/01/27 09:50:34;;;;;;;119.00;106.45;;;8.40;99.90;;;;;;4997521;28;20050;-80
2022/01/27 09:53:01;;;;;;;120.32;107.30;;;8.50;99.90;;;;;;4997343;28;20066;-81
2022/01/27 09:55:28;;;;;;;116.82;104.70;;;8.60;99.90;;;;;;4988492;28;20050;-80
2022/01/27 09:57:58;;;;;;;;;;;8.60;99.90;;;;;;4994592;28;20061;-80
2022/01/27 10:00:25;;;;;;;129.63;106.80;;;8.60;99.90;;;;;;5003715;28;19926;-81
2022/01/27 10:03:06;;;;;;;118.88;105.85;;;8.60;99.90;;;;;;5003044;28;20138;-77
2022/01/27 10:05:36;;;;;;;120.07;107.07;;;8.70;99.90;;;;;;5003307;28;20050;-80
2022/01/27 10:08:08;;;;;;;118.38;106.05;;;8.70;99.90;;;;;;5009834;28;20058;-79
2022/01/27 10:10:38;;;;;;;120.68;108.32;;;8.70;99.90;;;;;;4985272;28;20137;-80
2022/01/27 10:13:08;;;;;;;118.80;106.30;;;8.70;99.90;;;;;;4996332;28;20059;-82
2022/01/27 10:15:40;;;;;;;119.13;106.20;;;8.80;99.90;;;;;;5002840;28;20105;-81
2022/01/27 10:18:11;;;;;;;121.57;108.78;;;8.80;99.90;;;;;;5012111;28;20101;-84
2022/01/27 10:20:41;;;;;;;121.20;108.00;;;8.80;99.90;;;;;;4988446;28;20050;-83
2022/01/27 10:23:10;;;;;;;120.93;108.22;;;8.80;99.90;;;;;;4985187;28;20578;-79
2022/01/27 10:25:46;;;;;;;118.82;106.22;;;8.80;99.90;;;;;;4992868;28;20051;-80
2022/01/27 10:28:25;;;;;;;119.20;106.90;;;8.90;99.90;;;;;;5006475;28;20054;-81
2022/01/27 10:31:00;;;;;;;117.78;105.70;;;8.80;99.90;;;;;;4996310;28;20058;-81
2022/01/27 10:33:27;;;;;;;120.43;107.18;;;8.90;99.90;;;;;;4995675;28;20138;-81
2022/01/27 10:35:56;;;;;;;118.10;105.47;;;8.90;99.90;;;;;;4996562;28;20050;-81
2022/01/27 10:38:23;;;;;;;119.32;107.07;;;8.90;99.90;;;;;;5012857;28;20050;-81
2022/01/27 10:40:50;;;;;;;;;;;8.90;99.90;;;;;;5013460;28;20054;-81
2022/01/27 10:43:20;;;;;;;118.95;106.32;;;9.00;99.90;;;;;;4997109;28;19936;-81
2022/01/27 10:46:09;;;;;;;118.55;105.68;;;9.00;99.90;;;;;;5013370;28;20058;-81
2022/01/27 10:48:41;;;;;;;118.28;105.38;;;8.90;99.90;;;;;;5008035;28;20055;-80
2022/01/27 10:51:17;;;;;;;118.28;106.28;;;9.00;99.90;;;;;;4989299;28;20492;-80
2022/01/27 10:53:54;;;;;;;118.90;106.30;;;9.00;99.90;;;;;;5001961;28;20789;-80
2022/01/27 10:56:24;;;;;;;115.70;103.38;;;9.00;99.90;;;;;;5026120;28;20055;-81
2022/01/27 10:58:51;;;;;;;115.78;103.28;;;9.00;99.90;;;;;;5001246;28;20453;-80
2022/01/27 11:01:27;;;;;;;117.80;105.40;;;9.00;99.90;;;;;;5002164;28;20054;-80
2022/01/27 11:03:58;;;;;;;116.50;104.20;;;9.10;99.90;;;;;;4998017;28;20049;-80
2022/01/27 11:06:27;;;;;;;116.07;104.57;;;9.10;99.90;;;;;;4999329;28;20294;-81
2022/01/27 11:08:57;;;;;;;116.03;104.13;;;9.10;99.90;;;;;;5000476;28;20504;-80
2022/01/27 11:11:25;;;;;;;115.47;103.50;;;9.10;99.90;;;;;;4994088;28;20250;-80
2022/01/27 11:13:54;;;;;;;116.88;104.43;;;9.20;99.90;;;;;;4991992;28;20055;-81
2022/01/27 11:16:27;;;;;;;116.75;104.47;;;9.10;99.90;;;;;;4921651;28;21018;-81
2022/01/27 11:19:01;;;;;;;114.75;102.65;;;9.10;99.90;;;;;;4992806;28;20615;-81
2022/01/27 11:21:37;;;;;;;117.90;105.20;;;9.20;99.90;;;;;;4992945;28;20055;-81
2022/01/27 11:24:14;;;;;;;111.82;99.88;;;9.10;99.90;;;;;;4994219;28;20057;-81
2022/01/27 11:26:44;;;;;;;114.25;101.95;;;9.20;99.90;;;;;;5005585;28;20054;-81
2022/01/27 11:29:14;;;;;;;115.97;103.80;;;9.20;99.90;;;;;;4997549;28;20049;-85
2022/01/27 11:31:53;;;;;;;114.30;102.30;;;9.20;99.90;;;;;;4988711;28;20083;-86
2022/01/27 11:34:20;;;;;;;116.35;104.30;;;9.30;99.90;;;;;;4973656;28;20604;-85
2022/01/27 11:37:02;;;;;;;116.32;104.07;;;9.20;99.90;;;;;;4971366;28;20057;-85
2022/01/27 11:39:52;;;;;;;116.60;104.57;;;9.30;99.90;;;;;;4981923;28;20046;-87
2022/01/27 11:42:45;;;;;;;115.20;103.15;;;9.30;99.90;;;;;;4997412;28;20093;-87
2022/01/27 11:45:35;;;;;;;117.10;104.68;;;9.30;99.90;;;;;;5011653;28;20152;-82
2022/01/27 11:48:08;;;;;;;116.65;104.57;;;9.30;99.90;;;;;;4995580;28;20145;-83
2022/01/27 11:50:50;;;;;;;117.55;105.40;;;9.30;99.90;;;;;;4995861;28;20230;-84
2022/01/27 11:53:46;;;;;;;117.00;104.65;;;9.40;99.90;;;;;;4994955;28;20227;-84
2022/01/27 11:56:35;;;;;;;116.53;104.65;;;9.40;99.90;;;;;;4962606;28;20537;-83
2022/01/27 11:59:05;;;;;;;114.95;103.07;;;9.40;99.90;;;;;;4998848;28;20050;-84
2022/01/27 12:01:34;;;;;;;116.47;104.25;;;9.40;99.90;;;;;;4980872;28;20130;-85
2022/01/27 12:04:15;;;;;;;113.18;101.22;;;9.40;99.90;;;;;;4996143;28;20483;-85
2022/01/27 12:07:04;;;;;;;118.03;105.70;;;9.40;99.80;;;;;;4997242;28;20059;-83
2022/01/27 12:09:35;;;;;;;116.45;104.07;;;9.40;99.80;;;;;;4959728;28;20982;-85
2022/01/27 12:12:06;;;;;;;116.47;104.03;;;9.50;99.60;;;;;;4959798;28;20051;-84
2022/01/27 12:15:03;;;;;;;116.28;104.15;;;9.50;99.80;;;;;;4959630;28;20110;-84
2022/01/27 12:17:29;;;;;;;114.68;103.18;;;9.40;99.70;;;;;;4967224;28;20517;-83
2022/01/27 12:19:59;;;;;;;113.72;101.60;;;9.50;99.90;;;;;;4975325;28;20154;-83
2022/01/27 12:22:50;;;;;;;117.85;105.28;;;9.50;99.70;;;;;;4997986;28;20061;-82
2022/01/27 12:25:20;;;;;;;115.45;103.28;;;9.50;99.60;;;;;;5014134;28;20433;-82
2022/01/27 12:27:51;;;;;;;117.85;105.97;;;9.50;99.60;;;;;;5012798;28;20062;-82
2022/01/27 12:30:18;;;;;;;115.03;102.95;;;9.50;99.50;;;;;;4996781;28;20137;-84
2022/01/27 12:32:46;;;;;;;114.85;103.05;;;9.50;99.40;;;;;;5011619;28;20520;-81
2022/01/27 12:35:15;;;;;;;114.65;102.53;;;9.50;99.50;;;;;;4982828;28;20054;-81
2022/01/27 12:37:45;;;;;;;114.45;102.72;;;9.60;99.50;;;;;;5013887;28;20531;-84
2022/01/27 12:40:19;;;;;;;116.38;104.50;;;9.50;99.40;;;;;;5010692;28;20059;-81
2022/01/27 12:42:53;;;;;;;114.55;102.80;;;9.60;99.40;;;;;;4994815;28;20109;-85
2022/01/27 12:45:26;;;;;;;115.60;103.47;;;9.60;99.40;;;;;;4994579;28;20047;-81
2022/01/27 12:47:53;;;;;;;114.57;102.78;;;9.60;99.40;;;;;;4977868;28;20058;-82
2022/01/27 12:50:23;;;;;;;119.00;106.25;;;9.60;99.30;;;;;;4994405;28;20106;-82
2022/01/27 12:52:53;;;;;;;115.10;103.28;;;9.60;99.30;;;;;;4996045;28;20047;-82
2022/01/27 12:55:28;;;;;;;115.28;103.47;;;9.60;99.20;;;;;;4994168;28;20061;-83
2022/01/27 12:57:56;;;;;;;115.97;103.50;;;9.60;99.20;;;;;;4978205;28;20193;-81
2022/01/27 13:00:24;;;;;;;115.32;102.90;;;9.60;99.20;;;;;;4978338;28;20090;-83
2022/01/27 13:02:51;;;;;;;116.65;104.53;;;9.60;99.10;;;;;;4978126;28;20059;-83
2022/01/27 13:05:18;;;;;;;114.78;102.95;;;9.50;99.20;;;;;;4977915;28;20057;-82
2022/01/27 13:07:49;;;;;;;;;;;9.60;99.00;;;;;;5010481;28;20053;-91